Time;durP1;ratioP1;P1;durP2;ratioP2;P2;SDS_P1;SDS_P2;PMS_P1;PMS_P2;Temp;Humidity;BMP_temperature;BMP_pressure;BME280_temperature;BME280_humidity;BME280_pressure;Samples;Min_cycle;Max_cycle;Signal;HPM_P1;HPM_P2
2023/03/06 00:00:52;;;;;;;49.63;28.27;;;7.10;74.40;;;;;;5074348;28;20054;-20
2023/03/06 00:03:18;;;;;;;53.80;29.52;;;7.20;74.30;;;;;;5139587;22;20072;-17
2023/03/06 00:05:44;;;;;;;47.03;26.17;;;7.10;74.30;;;;;;5076570;28;20024;-16
2023/03/06 00:08:10;;;;;;;48.63;26.88;;;7.20;73.70;;;;;;5094976;28;20412;-16
2023/03/06 00:10:36;;;;;;;43.53;25.33;;;7.20;73.60;;;;;;5094594;28;20526;-13
2023/03/06 00:13:07;;;;;;;49.95;26.33;;;7.20;73.30;;;;;;5179944;22;20044;-18
2023/03/06 00:15:34;;;;;;;49.58;26.48;;;7.20;73.30;;;;;;5074536;28;20028;-18
2023/03/06 00:18:02;;;;;;;47.30;27.27;;;7.30;73.50;;;;;;5074442;28;20031;-18
2023/03/06 00:20:28;;;;;;;47.50;25.15;;;7.30;74.00;;;;;;5074060;28;20550;-18
2023/03/06 00:22:55;;;;;;;46.08;25.08;;;7.30;73.80;;;;;;5073907;28;20104;-16
2023/03/06 00:25:22;;;;;;;41.20;25.05;;;7.30;73.70;;;;;;5074013;28;20035;-20
2023/03/06 00:27:48;;;;;;;43.13;24.95;;;7.30;73.70;;;;;;5074185;28;20021;-18
2023/03/06 00:30:17;;;;;;;48.03;25.90;;;7.30;73.70;;;;;;5073921;28;20025;-17
2023/03/06 00:32:44;;;;;;;49.25;27.45;;;7.30;73.80;;;;;;5074039;28;20047;-18
2023/03/06 00:35:10;;;;;;;66.28;30.95;;;7.30;73.90;;;;;;5073048;28;20040;-18
2023/03/06 00:37:37;;;;;;;45.03;24.63;;;7.30;73.90;;;;;;5073794;28;20020;-19
2023/03/06 00:40:08;;;;;;;45.88;26.83;;;7.40;73.50;;;;;;5074014;28;20031;-18
2023/03/06 00:42:34;;;;;;;45.83;22.45;;;7.40;73.20;;;;;;5073741;28;20040;-19
2023/03/06 00:45:00;;;;;;;38.20;21.92;;;7.40;73.00;;;;;;5073475;28;20036;-17
2023/03/06 00:47:27;;;;;;;47.25;25.30;;;7.50;72.60;;;;;;5073984;28;20024;-18
2023/03/06 00:49:53;;;;;;;40.80;23.30;;;7.50;73.10;;;;;;5073502;28;20025;-17
2023/03/06 00:52:19;;;;;;;43.85;24.75;;;7.60;72.60;;;;;;5073446;28;20019;-18
2023/03/06 00:54:45;;;;;;;45.65;26.17;;;7.60;72.60;;;;;;5073147;28;20031;-18
2023/03/06 00:57:11;;;;;;;54.00;25.88;;;7.70;72.70;;;;;;5073376;28;20025;-18
2023/03/06 00:59:37;;;;;;;47.28;25.25;;;7.70;72.00;;;;;;5073590;28;20024;-19
2023/03/06 01:02:03;;;;;;;48.17;25.05;;;7.70;72.60;;;;;;5073189;28;20025;-18
2023/03/06 01:04:29;;;;;;;50.60;25.52;;;7.80;72.10;;;;;;5073175;28;20021;-18
2023/03/06 01:06:55;;;;;;;50.72;26.33;;;7.80;72.10;;;;;;5073297;28;20032;-17
2023/03/06 01:11:53;;;;;;;62.88;32.60;;;7.80;72.80;;;;;;5029733;28;20045;-17
2023/03/06 01:14:19;;;;;;;47.55;26.27;;;7.80;72.90;;;;;;5033499;28;20072;-16
2023/03/06 01:16:46;;;;;;;43.42;23.65;;;7.80;72.90;;;;;;5033104;28;20033;-14
2023/03/06 01:19:12;;;;;;;66.18;32.95;;;7.70;72.50;;;;;;5111715;22;20050;-12
2023/03/06 01:21:37;;;;;;;53.85;26.08;;;7.70;72.90;;;;;;5093305;28;20097;-16
2023/03/06 01:24:03;;;;;;;55.72;29.27;;;7.70;73.00;;;;;;5093199;28;20024;-16
2023/03/06 01:26:29;;;;;;;65.47;32.60;;;7.70;74.10;;;;;;5093518;28;20095;-16
2023/03/06 01:28:56;;;;;;;56.63;29.27;;;7.70;73.40;;;;;;5093177;28;20111;-16
2023/03/06 01:31:23;;;;;;;63.33;32.33;;;7.70;72.90;;;;;;5093636;28;20058;-18
2023/03/06 01:33:49;;;;;;;49.10;26.08;;;7.60;74.60;;;;;;5093212;28;20039;-16
2023/03/06 01:36:15;;;;;;;66.93;33.60;;;7.60;73.10;;;;;;5093494;28;20024;-17
2023/03/06 01:38:41;;;;;;;73.13;34.67;;;7.60;73.70;;;;;;5093045;28;20024;-17
2023/03/06 01:41:09;;;;;;;71.63;35.38;;;7.60;74.50;;;;;;5093259;28;20081;-19
2023/03/06 01:43:41;;;;;;;60.42;33.33;;;7.50;75.00;;;;;;5092856;28;20089;-16
2023/03/06 01:46:31;;;;;;;72.30;35.75;;;7.50;75.10;;;;;;5092853;28;20020;-16
2023/03/06 01:49:06;;;;;;;73.80;34.72;;;7.50;74.40;;;;;;5092455;28;20024;-16
2023/03/06 01:51:56;;;;;;;78.65;36.33;;;7.50;74.20;;;;;;5093265;28;20429;-17
2023/03/06 01:54:53;;;;;;;79.80;37.83;;;7.40;74.80;;;;;;5093287;28;20081;-16
2023/03/06 01:57:39;;;;;;;59.13;31.98;;;7.40;74.20;;;;;;5050810;28;20047;-17
2023/03/06 02:00:10;;;;;;;67.30;32.72;;;7.40;73.90;;;;;;5050468;28;20036;-16
2023/03/06 02:02:36;;;;;;;59.10;30.95;;;7.40;73.80;;;;;;5050427;28;20028;-18
2023/03/06 02:05:04;;;;;;;78.70;41.00;;;7.40;73.80;;;;;;5050043;28;20064;-16
2023/03/06 02:07:30;;;;;;;69.03;36.88;;;7.30;74.00;;;;;;5050463;28;20037;-16
2023/03/06 02:09:57;;;;;;;71.60;37.95;;;7.30;73.80;;;;;;5050741;28;20112;-16
2023/03/06 02:12:24;;;;;;;66.57;33.88;;;7.20;73.70;;;;;;5033678;28;20454;-16
2023/03/06 02:14:50;;;;;;;82.35;42.55;;;7.10;73.90;;;;;;5050159;28;20033;-17
2023/03/06 02:17:19;;;;;;;78.30;38.53;;;7.00;74.00;;;;;;5050352;28;20107;-16
2023/03/06 02:20:10;;;;;;;69.30;36.20;;;6.90;74.00;;;;;;5049850;28;20053;-18
2023/03/06 02:22:44;;;;;;;78.20;38.03;;;6.90;74.10;;;;;;5050418;28;20045;-17
2023/03/06 02:25:42;;;;;;;60.58;32.20;;;6.80;74.40;;;;;;5050171;28;20432;-17
2023/03/06 02:28:11;;;;;;;65.47;33.83;;;6.70;74.30;;;;;;5042458;28;20036;-18
2023/03/06 02:30:38;;;;;;;62.35;32.90;;;6.80;74.40;;;;;;5050297;28;20032;-17
2023/03/06 02:33:05;;;;;;;64.07;34.10;;;6.70;74.40;;;;;;5060778;28;20027;-16
2023/03/06 02:35:37;;;;;;;60.72;32.13;;;6.70;74.40;;;;;;5092601;28;20032;-18
2023/03/06 02:38:08;;;;;;;59.30;31.73;;;6.70;74.40;;;;;;5092451;28;20361;-18
2023/03/06 02:40:34;;;;;;;61.47;31.95;;;6.70;74.40;;;;;;5092747;28;20030;-17
2023/03/06 02:43:00;;;;;;;56.30;30.30;;;6.60;74.60;;;;;;5092002;28;20415;-17
2023/03/06 02:45:47;;;;;;;54.60;30.83;;;6.60;74.60;;;;;;5092140;28;20028;-16
2023/03/06 02:48:15;;;;;;;73.22;36.85;;;6.60;74.50;;;;;;5092191;28;20084;-18
2023/03/06 02:50:42;;;;;;;76.38;39.05;;;6.60;75.00;;;;;;5092436;28;20024;-16
2023/03/06 02:53:10;;;;;;;60.72;33.45;;;6.60;75.20;;;;;;5092668;28;20194;-16
2023/03/06 02:55:36;;;;;;;56.88;32.85;;;6.60;75.20;;;;;;5092033;28;20040;-18
2023/03/06 02:58:03;;;;;;;64.35;35.03;;;6.50;75.30;;;;;;5093243;28;20028;-16
2023/03/06 03:00:30;;;;;;;65.88;33.35;;;6.50;75.40;;;;;;5096206;28;20436;-18
2023/03/06 03:02:56;;;;;;;93.65;46.13;;;6.50;75.40;;;;;;5077665;28;20452;-16
2023/03/06 03:05:22;;;;;;;79.20;41.80;;;6.50;75.20;;;;;;5096012;28;20479;-18
2023/03/06 03:07:48;;;;;;;85.15;42.25;;;6.50;75.70;;;;;;5096598;28;20339;-18
2023/03/06 03:10:14;;;;;;;96.05;47.03;;;6.40;77.30;;;;;;5096567;28;20024;-16
2023/03/06 03:12:40;;;;;;;87.82;44.90;;;6.40;78.00;;;;;;5095660;28;20016;-18
2023/03/06 03:15:08;;;;;;;75.40;39.10;;;6.40;78.90;;;;;;5096283;28;20020;-17
2023/03/06 03:17:39;;;;;;;92.18;45.50;;;6.40;77.80;;;;;;5095844;28;20086;-17
2023/03/06 03:20:08;;;;;;;87.47;40.70;;;6.40;77.20;;;;;;5095511;28;20109;-17
2023/03/06 03:22:34;;;;;;;90.63;46.35;;;6.40;76.80;;;;;;5095499;28;20120;-16
2023/03/06 03:25:00;;;;;;;76.20;39.17;;;6.40;76.40;;;;;;5095390;28;20404;-18
2023/03/06 03:27:26;;;;;;;67.72;35.92;;;6.30;76.20;;;;;;5095561;28;20031;-17
2023/03/06 03:29:52;;;;;;;69.82;36.45;;;6.30;76.20;;;;;;5095511;28;20024;-16
2023/03/06 03:32:18;;;;;;;92.10;45.60;;;6.20;76.40;;;;;;5095505;28;20016;-18
2023/03/06 03:34:44;;;;;;;87.88;43.20;;;6.20;76.30;;;;;;5095453;28;20020;-17
2023/03/06 03:37:10;;;;;;;83.63;40.22;;;6.20;76.30;;;;;;5095867;28;20426;-16
2023/03/06 03:39:35;;;;;;;80.03;38.97;;;6.20;76.40;;;;;;5095532;28;20085;-18
2023/03/06 03:42:01;;;;;;;80.38;40.50;;;6.20;76.40;;;;;;5077223;28;20024;-18
2023/03/06 03:44:28;;;;;;;90.80;44.60;;;6.20;76.60;;;;;;5095362;28;20074;-17
2023/03/06 03:46:54;;;;;;;88.47;43.92;;;6.20;76.30;;;;;;5095178;28;20035;-16
2023/03/06 03:49:19;;;;;;;91.40;44.35;;;6.20;76.30;;;;;;5095151;28;20037;-16
2023/03/06 03:51:46;;;;;;;99.85;47.03;;;6.10;76.30;;;;;;5095576;28;20031;-18
2023/03/06 03:54:12;;;;;;;97.18;44.67;;;6.20;76.90;;;;;;5095364;28;20043;-18
2023/03/06 03:56:39;;;;;;;77.88;39.70;;;6.10;77.30;;;;;;5095137;28;20051;-17
2023/03/06 03:59:06;;;;;;;78.53;38.30;;;6.20;77.20;;;;;;5095013;28;20055;-15
2023/03/06 04:01:32;;;;;;;77.82;38.60;;;6.20;77.20;;;;;;5094843;28;20507;-16
2023/03/06 04:03:58;;;;;;;57.83;32.80;;;6.30;77.10;;;;;;5094695;28;20063;-16
2023/03/06 04:06:24;;;;;;;57.58;32.22;;;6.30;76.90;;;;;;5094809;28;20092;-16
2023/03/06 04:08:50;;;;;;;70.72;34.00;;;6.30;76.90;;;;;;5094851;28;20060;-18
2023/03/06 04:11:16;;;;;;;67.13;32.75;;;6.30;76.90;;;;;;5094661;28;20063;-17
2023/03/06 04:13:42;;;;;;;68.18;35.00;;;6.30;76.80;;;;;;5094810;28;20020;-18
2023/03/06 04:16:08;;;;;;;61.63;32.28;;;6.30;76.80;;;;;;5094752;28;20027;-17
2023/03/06 04:18:34;;;;;;;56.85;30.95;;;6.30;76.90;;;;;;5094521;28;20053;-18
2023/03/06 04:21:00;;;;;;;64.20;34.40;;;6.40;77.00;;;;;;5094056;28;20089;-18
2023/03/06 04:23:26;;;;;;;66.65;32.53;;;6.40;77.10;;;;;;5094309;28;20032;-17
2023/03/06 04:25:53;;;;;;;74.65;36.90;;;6.40;77.10;;;;;;5094358;28;20024;-17
2023/03/06 04:28:19;;;;;;;77.28;36.33;;;6.40;77.00;;;;;;5094344;28;20145;-16
2023/03/06 04:30:45;;;;;;;71.18;33.25;;;6.30;76.90;;;;;;5094049;28;20028;-16
2023/03/06 04:33:11;;;;;;;70.18;35.13;;;6.40;76.90;;;;;;5094447;28;20016;-16
2023/03/06 04:35:37;;;;;;;68.50;33.55;;;6.30;76.80;;;;;;5094095;28;20028;-18
2023/03/06 04:38:04;;;;;;;68.63;33.30;;;6.30;76.80;;;;;;5094096;28;20115;-18
2023/03/06 04:40:33;;;;;;;71.45;34.65;;;6.30;76.90;;;;;;5094069;28;20078;-16
2023/03/06 04:43:00;;;;;;;82.90;39.38;;;6.20;76.80;;;;;;5093835;28;20071;-18
2023/03/06 04:45:27;;;;;;;75.10;37.03;;;6.20;76.70;;;;;;5094355;28;20024;-18
2023/03/06 04:47:53;;;;;;;88.68;41.92;;;6.20;76.80;;;;;;5094235;28;20028;-17
2023/03/06 04:50:20;;;;;;;61.45;32.22;;;6.10;76.90;;;;;;5094108;28;20032;-17
2023/03/06 04:52:46;;;;;;;64.70;31.73;;;6.10;77.10;;;;;;5093677;28;20028;-17
2023/03/06 04:55:14;;;;;;;55.17;29.88;;;6.10;76.90;;;;;;5094071;28;20036;-18
2023/03/06 04:57:42;;;;;;;61.55;31.50;;;6.10;77.00;;;;;;5094040;28;20028;-16
2023/03/06 05:00:13;;;;;;;49.78;27.00;;;6.10;77.20;;;;;;5094295;28;20016;-17
2023/03/06 05:02:41;;;;;;;49.50;27.80;;;6.10;77.10;;;;;;5093135;28;20070;-18
2023/03/06 05:05:08;;;;;;;50.85;26.25;;;6.10;77.10;;;;;;5094004;28;20023;-18
2023/03/06 05:07:33;;;;;;;63.42;32.05;;;6.10;76.90;;;;;;5093523;28;20111;-16
2023/03/06 05:09:59;;;;;;;78.80;39.53;;;6.10;77.20;;;;;;5093826;28;20059;-18
2023/03/06 05:12:25;;;;;;;79.47;39.13;;;6.10;77.00;;;;;;5093513;28;20029;-16
2023/03/06 05:14:51;;;;;;;78.53;39.42;;;6.00;76.90;;;;;;5093144;28;20020;-17
2023/03/06 05:17:17;;;;;;;67.30;34.40;;;5.90;76.90;;;;;;5169683;22;20074;-20
2023/03/06 05:19:43;;;;;;;85.35;42.13;;;5.80;77.10;;;;;;5093575;28;20140;-20
2023/03/06 05:22:09;;;;;;;85.00;41.78;;;5.80;77.20;;;;;;5092851;28;20025;-20
2023/03/06 05:24:36;;;;;;;83.90;40.97;;;5.70;77.40;;;;;;5092978;28;20089;-20
2023/03/06 05:27:02;;;;;;;81.20;39.67;;;5.70;77.50;;;;;;5143751;22;20044;-17
2023/03/06 05:29:27;;;;;;;71.72;34.67;;;5.60;77.60;;;;;;5073268;28;20035;-18
2023/03/06 05:31:54;;;;;;;59.65;32.55;;;5.60;77.90;;;;;;5073291;28;20048;-16
2023/03/06 05:34:19;;;;;;;76.43;35.42;;;5.60;78.10;;;;;;5072853;28;20032;-17
2023/03/06 05:36:46;;;;;;;87.97;42.20;;;5.60;78.00;;;;;;5072512;28;20020;-18
2023/03/06 05:39:12;;;;;;;82.45;41.03;;;5.60;77.90;;;;;;5072739;28;20064;-19
2023/03/06 05:41:38;;;;;;;80.88;38.83;;;5.60;78.00;;;;;;5072789;28;20052;-17
2023/03/06 05:44:04;;;;;;;86.65;42.30;;;5.60;78.40;;;;;;5072797;28;20024;-18
2023/03/06 05:46:30;;;;;;;94.18;44.38;;;5.60;78.30;;;;;;5072885;28;20020;-17
2023/03/06 05:48:56;;;;;;;87.15;41.88;;;5.60;78.30;;;;;;5072303;28;20024;-18
2023/03/06 05:53:51;;;;;;;80.57;38.72;;;5.70;78.20;;;;;;5069434;28;20052;-21
2023/03/06 05:56:18;;;;;;;88.45;39.10;;;5.70;78.70;;;;;;5072503;28;20074;-21
2023/03/06 05:58:45;;;;;;;82.20;38.15;;;5.70;79.30;;;;;;5146626;22;20192;-18
2023/03/06 06:01:16;;;;;;;85.63;40.08;;;5.80;78.60;;;;;;5092516;28;20038;-18
2023/03/06 06:03:42;;;;;;;77.80;37.38;;;5.80;78.50;;;;;;5093500;28;20028;-18
2023/03/06 06:06:10;;;;;;;76.28;36.90;;;5.80;78.20;;;;;;5092780;28;20057;-19
2023/03/06 06:08:36;;;;;;;69.70;34.97;;;5.90;78.40;;;;;;5176799;22;20158;-21
2023/03/06 06:11:06;;;;;;;73.75;35.75;;;5.90;78.50;;;;;;5112535;28;20036;-23
2023/03/06 06:13:33;;;;;;;67.18;31.90;;;5.90;78.50;;;;;;5152768;22;20052;-18
2023/03/06 06:15:59;;;;;;;63.53;29.17;;;6.00;78.80;;;;;;5180604;22;20048;-17
2023/03/06 06:18:25;;;;;;;64.55;31.33;;;6.10;78.90;;;;;;5092450;28;20016;-16
2023/03/06 06:20:51;;;;;;;78.38;35.13;;;6.20;79.20;;;;;;5092084;28;20070;-17
2023/03/06 06:23:17;;;;;;;65.55;30.35;;;6.30;79.10;;;;;;5092411;28;20027;-18
2023/03/06 06:25:43;;;;;;;66.32;31.88;;;6.40;79.30;;;;;;5092382;28;20027;-17
2023/03/06 06:28:11;;;;;;;62.40;30.30;;;6.50;79.30;;;;;;5092204;28;20114;-18
2023/03/06 06:30:37;;;;;;;76.47;34.38;;;6.60;79.50;;;;;;5092179;28;20038;-18
2023/03/06 06:33:02;;;;;;;77.85;35.80;;;6.80;79.30;;;;;;5093162;28;20016;-17
2023/03/06 06:35:28;;;;;;;56.55;27.88;;;7.00;78.30;;;;;;5096799;28;20056;-18
2023/03/06 06:37:54;;;;;;;52.85;27.50;;;7.10;78.20;;;;;;5096839;28;20386;-16
2023/03/06 06:40:23;;;;;;;65.03;29.38;;;7.20;78.30;;;;;;5096358;28;20062;-18
2023/03/06 06:42:48;;;;;;;61.28;30.15;;;7.40;78.20;;;;;;5149364;22;20060;-19
2023/03/06 06:45:14;;;;;;;64.03;30.25;;;7.60;78.00;;;;;;5075953;28;20410;-17
2023/03/06 06:47:40;;;;;;;63.50;31.08;;;7.60;77.30;;;;;;5148179;22;20036;-19
2023/03/06 06:50:11;;;;;;;51.38;25.27;;;7.60;77.30;;;;;;5096357;28;20028;-18
2023/03/06 06:52:37;;;;;;;54.78;25.02;;;7.70;77.30;;;;;;5096264;28;20463;-18
2023/03/06 06:55:03;;;;;;;50.63;25.27;;;7.70;77.50;;;;;;5159736;22;20122;-21
2023/03/06 06:57:29;;;;;;;47.33;24.50;;;7.80;77.40;;;;;;5076127;28;20060;-20
2023/03/06 06:59:55;;;;;;;50.90;25.45;;;7.90;77.20;;;;;;5075637;28;20106;-21
2023/03/06 07:02:21;;;;;;;55.85;27.60;;;8.00;77.00;;;;;;5075647;28;20387;-21
2023/03/06 07:04:48;;;;;;;63.88;30.35;;;8.20;77.20;;;;;;5075408;28;20436;-23
2023/03/06 07:07:13;;;;;;;58.15;27.52;;;8.30;76.60;;;;;;5148582;22;20082;-18
2023/03/06 07:09:39;;;;;;;66.32;30.08;;;8.30;76.30;;;;;;5096279;28;20047;-18
2023/03/06 07:12:07;;;;;;;65.22;31.20;;;8.40;76.10;;;;;;5095991;28;20047;-18
2023/03/06 07:14:33;;;;;;;49.63;25.48;;;8.40;75.80;;;;;;5077559;28;20368;-18
2023/03/06 07:16:58;;;;;;;57.30;28.75;;;8.50;75.50;;;;;;5095797;28;20030;-17
2023/03/06 07:19:25;;;;;;;56.10;28.10;;;8.60;75.70;;;;;;5181470;22;20533;-18
2023/03/06 07:21:51;;;;;;;58.25;30.52;;;8.70;75.50;;;;;;5075560;28;20043;-17
2023/03/06 07:24:17;;;;;;;63.38;31.88;;;8.80;75.30;;;;;;5075684;28;20386;-16
2023/03/06 07:26:46;;;;;;;58.42;30.77;;;8.80;75.30;;;;;;5075271;28;20028;-17
2023/03/06 07:29:13;;;;;;;56.88;28.30;;;8.90;75.30;;;;;;5057845;28;20029;-18
2023/03/06 07:31:39;;;;;;;48.33;25.30;;;9.10;75.30;;;;;;5075174;28;20021;-17
2023/03/06 07:34:05;;;;;;;50.88;26.30;;;9.20;75.30;;;;;;5075006;28;20031;-18
2023/03/06 07:36:33;;;;;;;60.55;28.30;;;9.30;74.80;;;;;;5075356;28;20021;-18
2023/03/06 07:38:59;;;;;;;61.47;29.70;;;9.40;74.20;;;;;;5074999;28;20036;-16
2023/03/06 07:41:25;;;;;;;53.78;26.88;;;9.40;74.00;;;;;;5075448;28;20024;-17
2023/03/06 07:43:51;;;;;;;43.90;23.60;;;9.40;74.00;;;;;;5074622;28;20031;-17
2023/03/06 07:46:17;;;;;;;61.83;26.25;;;9.40;74.00;;;;;;5075097;28;20024;-17
2023/03/06 07:48:49;;;;;;;45.53;23.75;;;9.40;74.10;;;;;;5075016;28;20021;-17
2023/03/06 07:51:19;;;;;;;48.03;25.15;;;9.40;73.90;;;;;;5074959;28;20032;-17
2023/03/06 07:53:46;;;;;;;57.55;30.08;;;9.40;74.10;;;;;;5074787;28;20491;-16
2023/03/06 07:56:13;;;;;;;54.95;26.27;;;9.40;74.40;;;;;;5074947;28;20032;-17
2023/03/06 07:58:42;;;;;;;53.13;27.95;;;9.40;73.70;;;;;;5074641;28;20021;-21
2023/03/06 08:01:12;;;;;;;49.20;25.85;;;9.50;74.00;;;;;;5074653;28;20032;-18
2023/03/06 08:03:38;;;;;;;58.38;26.20;;;9.50;74.40;;;;;;5074716;28;20051;-18
2023/03/06 08:06:12;;;;;;;45.83;25.30;;;9.50;74.30;;;;;;5056533;28;20052;-18
2023/03/06 08:08:41;;;;;;;49.30;25.38;;;9.60;74.10;;;;;;5074743;28;20024;-16
2023/03/06 08:11:09;;;;;;;56.50;26.48;;;9.60;73.80;;;;;;5074686;28;20025;-19
2023/03/06 08:13:36;;;;;;;44.95;21.27;;;9.60;73.50;;;;;;5074728;28;20050;-17
2023/03/06 08:16:03;;;;;;;47.17;24.88;;;9.70;73.20;;;;;;5074878;28;20056;-18
2023/03/06 08:18:29;;;;;;;41.10;20.80;;;9.70;72.10;;;;;;5074341;28;20024;-20
2023/03/06 08:21:04;;;;;;;44.22;20.63;;;9.80;72.40;;;;;;5178308;22;20052;-17
2023/03/06 08:23:30;;;;;;;47.67;23.42;;;9.80;71.60;;;;;;5094446;28;20390;-17
2023/03/06 08:26:02;;;;;;;38.15;20.90;;;9.90;71.20;;;;;;5094502;28;20455;-17
2023/03/06 08:28:28;;;;;;;44.08;22.13;;;9.90;71.40;;;;;;5094980;28;20035;-18
2023/03/06 08:30:55;;;;;;;38.85;20.58;;;9.90;71.10;;;;;;5094620;28;20028;-17
2023/03/06 08:33:21;;;;;;;40.15;19.88;;;10.00;71.00;;;;;;5094775;28;20021;-18
2023/03/06 08:35:47;;;;;;;43.60;20.85;;;10.20;70.70;;;;;;5094661;28;20043;-18
2023/03/06 08:38:13;;;;;;;38.30;20.33;;;10.40;69.70;;;;;;5094427;28;20086;-17
2023/03/06 08:40:39;;;;;;;38.75;20.85;;;10.50;69.40;;;;;;5093958;28;20032;-15
2023/03/06 08:43:08;;;;;;;45.58;22.38;;;10.60;69.20;;;;;;5094491;28;20032;-16
2023/03/06 08:45:34;;;;;;;38.35;19.88;;;10.80;69.10;;;;;;5094131;28;20031;-17
2023/03/06 08:48:01;;;;;;;42.35;21.95;;;10.90;69.00;;;;;;5094205;28;20026;-18
2023/03/06 08:52:52;;;;;;;44.90;22.58;;;10.90;68.80;;;;;;5099522;22;20508;-21
2023/03/06 08:55:18;;;;;;;44.00;20.95;;;10.90;69.30;;;;;;5033246;28;20034;-20
2023/03/06 08:57:44;;;;;;;50.03;22.85;;;10.80;69.50;;;;;;5170842;22;20502;-18
2023/03/06 09:00:11;;;;;;;43.05;21.90;;;10.70;69.70;;;;;;5073894;28;20100;-17
2023/03/06 09:02:39;;;;;;;42.38;23.00;;;10.60;70.10;;;;;;5073587;28;20073;-17
2023/03/06 09:05:06;;;;;;;46.20;22.85;;;10.60;70.40;;;;;;5074039;28;20032;-19
2023/03/06 09:07:33;;;;;;;41.17;21.05;;;10.60;70.70;;;;;;5073644;28;20021;-18
2023/03/06 09:09:59;;;;;;;41.90;22.15;;;10.60;70.70;;;;;;5073604;28;20024;-17
2023/03/06 09:12:25;;;;;;;43.95;21.77;;;10.80;70.80;;;;;;5128257;22;20053;-17
2023/03/06 09:14:51;;;;;;;41.10;20.75;;;10.80;70.70;;;;;;5073385;28;20078;-18
2023/03/06 09:17:17;;;;;;;34.95;19.25;;;10.90;70.30;;;;;;5073166;28;20485;-18
2023/03/06 09:19:42;;;;;;;37.75;20.70;;;11.10;69.90;;;;;;5166784;22;20023;-15
2023/03/06 09:22:09;;;;;;;37.55;19.05;;;11.20;68.90;;;;;;5093746;28;20039;-17
2023/03/06 09:27:08;;;;;;;38.28;20.48;;;11.40;68.90;;;;;;5048958;28;20381;-21
2023/03/06 09:32:06;;;;;;;41.60;20.67;;;11.70;68.20;;;;;;4986341;28;1265244;-16
2023/03/06 09:34:32;;;;;;;42.70;22.73;;;11.80;65.20;;;;;;5033317;28;20053;-18
2023/03/06 09:36:58;;;;;;;44.03;20.38;;;11.90;66.30;;;;;;5032837;28;20077;-18
2023/03/06 09:39:25;;;;;;;33.00;18.45;;;11.90;65.40;;;;;;5096307;22;20140;-21
2023/03/06 09:41:51;;;;;;;36.92;19.00;;;12.00;66.30;;;;;;5032894;28;20141;-20
2023/03/06 09:44:32;;;;;;;37.03;19.40;;;12.10;66.60;;;;;;5032892;28;20451;-20
2023/03/06 09:47:19;;;;;;;31.67;17.63;;;12.30;64.60;;;;;;5032608;28;20516;-20
2023/03/06 09:49:52;;;;;;;34.42;18.40;;;12.40;65.30;;;;;;5103169;22;20140;-15
2023/03/06 09:52:33;;;;;;;35.90;18.00;;;12.50;65.40;;;;;;5053137;28;20231;-16
2023/03/06 09:55:16;;;;;;;33.53;16.95;;;12.60;65.00;;;;;;5052449;28;20446;-15
2023/03/06 09:58:08;;;;;;;35.15;18.88;;;12.90;65.10;;;;;;5052587;28;20045;-16
2023/03/06 10:00:42;;;;;;;32.47;16.58;;;13.00;64.30;;;;;;5127626;22;20210;-15
2023/03/06 10:03:21;;;;;;;;;;;13.10;63.00;;;;;;5072929;28;20029;-18
2023/03/06 10:08:26;;;;;;;30.38;16.13;;;13.20;62.90;;;;;;5152723;22;20047;-19
2023/03/06 10:11:02;;;;;;;29.58;15.50;;;13.40;63.30;;;;;;5074202;28;20110;-19
2023/03/06 10:13:28;;;;;;;28.27;15.55;;;13.50;63.00;;;;;;5093118;28;20126;-20
2023/03/06 10:16:05;;;;;;;31.98;14.77;;;13.60;62.60;;;;;;5092606;28;20108;-20
2023/03/06 10:18:31;;;;;;;33.75;16.05;;;13.70;62.20;;;;;;5092819;28;20024;-19
2023/03/06 10:21:15;;;;;;;33.72;15.40;;;13.80;61.50;;;;;;5090653;28;20545;-19
2023/03/06 10:23:53;;;;;;;35.65;16.73;;;13.80;61.30;;;;;;5092519;28;20036;-19
2023/03/06 10:26:24;;;;;;;27.70;14.55;;;13.80;60.60;;;;;;5092225;28;20403;-19
2023/03/06 10:29:29;;;;;;;25.55;13.95;;;13.70;61.10;;;;;;5092041;28;20028;-19
2023/03/06 10:32:10;;;;;;;29.17;15.38;;;13.70;61.50;;;;;;5092236;28;20035;-19
2023/03/06 10:34:38;;;;;;;28.98;14.30;;;13.80;61.60;;;;;;5092489;28;20025;-20
2023/03/06 10:37:18;;;;;;;32.88;16.58;;;13.80;61.00;;;;;;5091950;28;20020;-19
2023/03/06 10:39:45;;;;;;;27.15;14.43;;;13.90;60.90;;;;;;5092004;28;20493;-19
2023/03/06 10:42:11;;;;;;;27.48;15.13;;;13.90;61.10;;;;;;5091890;28;20020;-20
2023/03/06 10:44:37;;;;;;;26.95;15.95;;;14.00;61.10;;;;;;5092296;28;20039;-18
2023/03/06 10:47:30;;;;;;;38.83;18.42;;;14.20;60.40;;;;;;5091782;28;20522;-19
2023/03/06 10:49:59;;;;;;;32.60;17.37;;;14.40;59.90;;;;;;5092053;28;20425;-21
2023/03/06 10:52:30;;;;;;;29.15;15.77;;;14.70;59.60;;;;;;5091926;28;20035;-19
2023/03/06 10:55:30;;;;;;;31.48;17.33;;;15.00;59.40;;;;;;5091764;28;20024;-19
2023/03/06 10:57:56;;;;;;;31.10;15.70;;;15.40;57.60;;;;;;5091980;28;20032;-18
2023/03/06 11:00:28;;;;;;;24.55;13.32;;;15.60;57.20;;;;;;5091868;28;20023;-19
2023/03/06 11:03:04;;;;;;;27.38;14.10;;;15.90;57.30;;;;;;5149229;22;20055;-17
2023/03/06 11:05:30;;;;;;;30.58;15.15;;;16.20;54.00;;;;;;5092412;28;20043;-17
2023/03/06 11:07:58;;;;;;;27.38;13.02;;;16.50;53.90;;;;;;5092046;28;20335;-17
2023/03/06 11:10:25;;;;;;;23.95;13.35;;;16.60;53.80;;;;;;5092227;28;20042;-16
2023/03/06 11:13:07;;;;;;;29.38;14.85;;;16.70;54.10;;;;;;5092313;28;20056;-17
2023/03/06 11:15:34;;;;;;;31.52;16.30;;;16.90;54.00;;;;;;5091993;28;20103;-14
2023/03/06 11:18:24;;;;;;;27.98;14.13;;;16.90;53.60;;;;;;5091736;28;20027;-16
2023/03/06 11:20:53;;;;;;;27.33;14.85;;;16.90;54.10;;;;;;5095334;28;20428;-12
2023/03/06 11:23:39;;;;;;;28.88;15.27;;;16.90;51.60;;;;;;5095545;28;20028;-16
2023/03/06 11:26:15;;;;;;;26.15;14.57;;;17.00;51.50;;;;;;5095587;28;20026;-15
2023/03/06 11:28:42;;;;;;;31.05;16.52;;;17.10;52.20;;;;;;5095485;28;20024;-15
2023/03/06 11:31:17;;;;;;;33.13;17.05;;;17.10;52.50;;;;;;5095599;28;20028;-16
2023/03/06 11:34:06;;;;;;;26.05;13.68;;;17.00;51.50;;;;;;5095692;28;20020;-13
2023/03/06 11:36:47;;;;;;;25.80;14.10;;;16.90;52.70;;;;;;5095432;28;20020;-14
2023/03/06 11:39:24;;;;;;;32.33;15.05;;;16.90;52.40;;;;;;5095589;28;20024;-15
2023/03/06 11:41:56;;;;;;;29.00;15.43;;;16.80;52.40;;;;;;5095313;28;20046;-16
2023/03/06 11:44:41;;;;;;;26.60;15.18;;;16.70;52.80;;;;;;5095790;28;20043;-17
2023/03/06 11:47:25;;;;;;;30.85;16.13;;;16.70;52.80;;;;;;5095360;28;20027;-17
2023/03/06 11:50:05;;;;;;;;;;;16.70;51.50;;;;;;5095917;28;20103;-15
2023/03/06 11:53:00;;;;;;;29.17;15.48;;;16.60;52.00;;;;;;5095276;28;20411;-17
2023/03/06 11:55:38;;;;;;;32.35;16.80;;;16.60;52.00;;;;;;5094842;28;20093;-14
2023/03/06 11:58:22;;;;;;;27.77;15.77;;;16.60;51.60;;;;;;5095220;28;20103;-14
2023/03/06 12:01:14;;;;;;;30.42;16.48;;;16.70;51.20;;;;;;5094681;28;20030;-16
2023/03/06 12:03:58;;;;;;;29.30;16.10;;;16.70;51.20;;;;;;5095186;28;20040;-14
2023/03/06 12:06:58;;;;;;;27.70;15.07;;;16.80;51.60;;;;;;5094900;28;20355;-16
2023/03/06 12:09:46;;;;;;;30.67;16.33;;;16.80;51.90;;;;;;5095046;28;20024;-17
2023/03/06 12:12:19;;;;;;;34.90;18.23;;;16.90;51.50;;;;;;5086746;28;20067;-13
2023/03/06 12:14:57;;;;;;;31.93;17.50;;;16.90;51.10;;;;;;5094784;28;20430;-14
2023/03/06 12:17:51;;;;;;;28.17;15.70;;;16.90;51.00;;;;;;5076321;28;20038;-18
2023/03/06 12:20:45;;;;;;;33.55;17.67;;;16.90;51.40;;;;;;5094561;28;20101;-16
2023/03/06 12:23:32;;;;;;;;;;;16.90;50.10;;;;;;5095631;28;20047;-16
2023/03/06 12:26:06;;;;;;;28.02;15.52;;;16.90;50.60;;;;;;5095110;28;19992;-16
2023/03/06 12:28:41;;;;;;;30.98;17.38;;;16.90;50.80;;;;;;5094612;28;20103;-17
2023/03/06 12:31:29;;;;;;;28.45;15.48;;;17.00;50.90;;;;;;5093364;28;20046;-16
2023/03/06 12:34:33;;;;;;;36.42;20.73;;;16.90;51.30;;;;;;5094393;28;20032;-18
2023/03/06 12:37:25;;;;;;;30.95;16.70;;;16.90;50.50;;;;;;5031904;28;20068;-16
2023/03/06 12:39:56;;;;;;;28.98;17.02;;;16.90;51.10;;;;;;5032369;28;20396;-16
2023/03/06 12:42:22;;;;;;;30.38;18.50;;;16.90;51.40;;;;;;5031987;28;20132;-17
2023/03/06 12:45:09;;;;;;;26.92;16.23;;;17.00;51.20;;;;;;5031596;28;20025;-18
2023/03/06 12:47:43;;;;;;;36.22;19.48;;;17.10;50.10;;;;;;5031702;28;20040;-16
2023/03/06 12:50:30;;;;;;;30.75;17.92;;;17.00;50.50;;;;;;5032032;28;20064;-17
2023/03/06 12:53:01;;;;;;;27.42;15.60;;;17.10;50.90;;;;;;5031661;28;20157;-15
2023/03/06 12:55:35;;;;;;;32.00;18.95;;;17.10;51.00;;;;;;5031978;28;20033;-16
2023/03/06 12:58:28;;;;;;;29.38;17.35;;;17.20;51.30;;;;;;5031519;28;20029;-17
2023/03/06 13:01:15;;;;;;;27.70;16.90;;;17.40;51.20;;;;;;5031357;28;20551;-15
2023/03/06 13:03:59;;;;;;;33.58;18.95;;;17.70;50.30;;;;;;5031836;28;20430;-16
2023/03/06 13:06:43;;;;;;;35.47;18.60;;;17.90;48.60;;;;;;5143060;22;20410;-20